Time;durP1;ratioP1;P1;durP2;ratioP2;P2;SDS_P1;SDS_P2;PMS_P1;PMS_P2;Temp;Humidity;BMP_temperature;BMP_pressure;BME280_temperature;BME280_humidity;BME280_pressure;Samples;Min_cycle;Max_cycle;Signal;HPM_P1;HPM_P2
2021/03/16 00:01:18;;;;;;;4.28;1.20;;;;;;;23.98;40.30;98479.00;5090395;28;20297;-61
2021/03/16 00:03:44;;;;;;;2.80;1.13;;;;;;;23.97;40.34;98473.81;5090689;28;20423;-61
2021/03/16 00:06:10;;;;;;;2.53;1.10;;;;;;;23.90;41.07;98484.34;5089987;28;20308;-60
2021/03/16 00:08:37;;;;;;;5.35;1.40;;;;;;;24.04;40.75;98484.66;5090833;28;20374;-61
2021/03/16 00:11:03;;;;;;;3.90;1.15;;;;;;;23.88;40.03;98485.50;5094212;28;20202;-58
2021/03/16 00:13:30;;;;;;;4.63;1.50;;;;;;;23.91;39.92;98490.50;5093737;28;20293;-61
2021/03/16 00:15:57;;;;;;;6.32;1.48;;;;;;;23.87;40.32;98490.03;5093911;28;20202;-61
2021/03/16 00:18:23;;;;;;;3.13;1.20;;;;;;;23.90;40.31;98495.03;5093890;28;20284;-61
2021/03/16 00:20:51;;;;;;;4.25;1.20;;;;;;;23.93;39.76;98480.50;5093746;28;20717;-54
2021/03/16 00:23:18;;;;;;;2.80;1.10;;;;;;;23.90;40.93;98492.34;5093588;28;20202;-61
2021/03/16 00:25:45;;;;;;;3.03;1.25;;;;;;;23.81;40.66;98504.00;5093458;28;20302;-61
2021/03/16 00:28:11;;;;;;;4.32;1.30;;;;;;;23.75;40.86;98505.50;5093307;28;20320;-61
2021/03/16 00:30:37;;;;;;;3.42;1.38;;;;;;;23.76;39.99;98498.31;5092985;28;20258;-62
2021/03/16 00:33:03;;;;;;;4.47;1.65;;;;;;;23.74;40.51;98503.84;5092947;28;20206;-60
2021/03/16 00:35:29;;;;;;;5.88;1.15;;;;;;;23.74;41.08;98505.69;5093213;28;20293;-61
2021/03/16 00:37:56;;;;;;;2.67;1.27;;;;;;;23.75;40.13;98502.03;5093147;28;20253;-60
2021/03/16 00:40:22;;;;;;;3.20;1.27;;;;;;;23.77;40.63;98502.69;5093029;28;20292;-61
2021/03/16 00:42:49;;;;;;;3.90;1.30;;;;;;;23.74;40.62;98505.69;5093390;28;20224;-59
2021/03/16 00:45:15;;;;;;;3.47;1.55;;;;;;;23.72;40.60;98505.84;5093650;28;20351;-56
2021/03/16 00:47:41;;;;;;;3.75;1.30;;;;;;;23.69;41.00;98508.03;5094040;28;20297;-61
2021/03/16 00:50:10;;;;;;;3.55;1.27;;;;;;;23.73;40.15;98504.00;5094480;28;20216;-61
2021/03/16 00:52:36;;;;;;;2.08;1.00;;;;;;;23.67;40.84;98510.03;5094499;28;20363;-61
2021/03/16 00:55:04;;;;;;;3.08;1.35;;;;;;;23.67;41.04;98510.03;5094505;28;20202;-60
2021/03/16 00:57:31;;;;;;;2.40;1.17;;;;;;;23.61;40.48;98501.66;5093617;28;20250;-61
2021/03/16 00:59:58;;;;;;;2.15;0.90;;;;;;;23.63;40.38;98505.00;5092886;28;20233;-59
2021/03/16 01:02:24;;;;;;;2.90;0.93;;;;;;;23.65;40.60;98508.34;5092520;28;20288;-61
2021/03/16 01:04:50;;;;;;;2.22;1.10;;;;;;;23.57;40.72;98508.34;5092927;28;20285;-61
2021/03/16 01:07:16;;;;;;;3.10;0.98;;;;;;;23.62;40.48;98511.34;5092769;28;20239;-61
2021/03/16 01:09:42;;;;;;;2.47;0.98;;;;;;;23.59;40.64;98511.66;5092757;28;20288;-61
2021/03/16 01:12:09;;;;;;;3.80;1.30;;;;;;;23.59;40.23;98516.19;5093028;28;20248;-61
2021/03/16 01:14:35;;;;;;;2.35;0.80;;;;;;;23.58;40.25;98515.34;5092781;28;20257;-61
2021/03/16 01:17:02;;;;;;;2.38;0.93;;;;;;;23.58;40.76;98523.38;5092288;28;20217;-60
2021/03/16 01:19:29;;;;;;;2.15;1.05;;;;;;;23.56;40.79;98530.69;5092231;28;20666;-60
2021/03/16 01:21:55;;;;;;;1.75;0.77;;;;;;;23.57;40.62;98534.19;5092194;28;20266;-58
2021/03/16 01:24:21;;;;;;;2.80;1.15;;;;;;;23.52;40.73;98534.69;5092389;28;20300;-61
2021/03/16 01:26:47;;;;;;;2.75;0.90;;;;;;;23.51;40.83;98532.19;5092070;28;20228;-60
2021/03/16 01:29:13;;;;;;;3.65;1.10;;;;;;;23.52;40.92;98528.53;5092403;28;20288;-61
2021/03/16 01:31:39;;;;;;;2.80;1.00;;;;;;;23.54;40.79;98532.69;5092361;28;20309;-61
2021/03/16 01:34:06;;;;;;;2.42;0.82;;;;;;;23.52;41.16;98539.19;5092007;28;20324;-62
2021/03/16 01:36:32;;;;;;;2.45;0.75;;;;;;;23.42;40.43;98539.34;5092216;28;20342;-61
2021/03/16 01:38:59;;;;;;;1.77;0.80;;;;;;;23.42;40.48;98537.50;5092132;28;20670;-61
2021/03/16 01:41:25;;;;;;;2.58;0.90;;;;;;;23.43;40.93;98536.50;5091927;28;20665;-61
2021/03/16 01:43:51;;;;;;;2.92;0.90;;;;;;;23.52;40.78;98533.84;5092151;28;20259;-51
2021/03/16 01:46:18;;;;;;;2.72;1.17;;;;;;;23.47;41.27;98537.00;5091779;28;20305;-62
2021/03/16 01:48:44;;;;;;;1.60;0.88;;;;;;;23.44;40.79;98537.34;5091987;28;20237;-60
2021/03/16 01:51:11;;;;;;;2.75;1.20;;;;;;;23.39;40.63;98545.00;5092107;28;20202;-61
2021/03/16 01:53:39;;;;;;;1.65;0.80;;;;;;;23.41;41.03;98545.66;5091721;28;20339;-61
2021/03/16 01:56:07;;;;;;;2.58;1.00;;;;;;;23.45;40.45;98539.03;5091429;28;20296;-61
2021/03/16 01:58:33;;;;;;;1.83;0.77;;;;;;;23.45;40.42;98544.34;5091876;28;20290;-61
2021/03/16 02:00:59;;;;;;;1.60;0.98;;;;;;;23.36;40.37;98540.00;5091694;28;20217;-57
2021/03/16 02:03:26;;;;;;;3.70;0.98;;;;;;;23.34;40.93;98542.81;5091567;28;20576;-61
2021/03/16 02:05:52;;;;;;;2.13;0.80;;;;;;;23.33;40.93;98546.50;5091517;28;20613;-59
2021/03/16 02:08:26;;;;;;;1.83;0.80;;;;;;;23.34;40.39;98540.16;5091699;28;20312;-60
2021/03/16 02:11:02;;;;;;;1.75;0.73;;;;;;;23.39;40.46;98553.00;5092965;28;20653;-60
2021/03/16 02:13:34;;;;;;;2.45;0.90;;;;;;;23.36;41.28;98540.81;5092532;28;20189;-61
2021/03/16 02:16:07;;;;;;;2.17;1.00;;;;;;;23.33;40.68;98550.97;5092561;28;20631;-58
2021/03/16 02:18:37;;;;;;;2.65;0.90;;;;;;;23.33;40.57;98545.66;5092458;28;20188;-59
2021/03/16 02:21:12;;;;;;;1.58;0.95;;;;;;;23.36;40.97;98546.16;5092485;28;20270;-61
2021/03/16 02:24:03;;;;;;;2.05;0.93;;;;;;;23.33;41.18;98545.66;5092517;28;20338;-60
2021/03/16 02:26:38;;;;;;;2.63;0.90;;;;;;;23.31;40.58;98543.13;5092087;28;20683;-62
2021/03/16 02:29:11;;;;;;;2.45;0.85;;;;;;;23.31;41.52;98552.97;5091868;28;20391;-58
2021/03/16 02:31:41;;;;;;;2.05;0.90;;;;;;;23.30;41.02;98549.50;5092108;28;20278;-61
2021/03/16 02:34:09;;;;;;;3.60;1.05;;;;;;;23.29;41.21;98542.47;5092299;28;20186;-58
2021/03/16 02:36:37;;;;;;;3.08;0.88;;;;;;;23.25;41.39;98555.31;5092479;28;20317;-60
2021/03/16 02:39:07;;;;;;;15.95;1.45;;;;;;;23.26;41.33;98551.66;5092847;28;20253;-57
2021/03/16 02:41:35;;;;;;;3.08;0.90;;;;;;;23.24;40.73;98552.81;5090924;28;20289;-63
2021/03/16 02:44:01;;;;;;;2.15;1.10;;;;;;;23.27;41.53;98555.97;5091010;28;20679;-61
2021/03/16 02:46:29;;;;;;;2.33;0.90;;;;;;;23.24;40.94;98558.13;5091365;28;20233;-58
2021/03/16 02:48:56;;;;;;;2.35;0.80;;;;;;;23.22;40.82;98554.81;5092111;28;20700;-56
2021/03/16 02:51:24;;;;;;;2.20;0.82;;;;;;;23.25;41.10;98557.16;5091255;28;20288;-58
2021/03/16 02:53:52;;;;;;;2.53;0.70;;;;;;;23.17;40.66;98560.63;5090809;28;20689;-60
2021/03/16 02:56:20;;;;;;;1.58;0.60;;;;;;;23.16;40.71;98569.59;5091154;28;20308;-60
2021/03/16 02:58:48;;;;;;;2.50;1.05;;;;;;;23.19;41.11;98566.63;5090830;28;20648;-58
2021/03/16 03:01:16;;;;;;;1.67;0.80;;;;;;;23.16;41.39;98566.94;5091279;28;20249;-59
2021/03/16 03:03:45;;;;;;;1.60;0.70;;;;;;;23.13;41.71;98563.75;5091388;28;20202;-57
2021/03/16 03:06:13;;;;;;;2.55;0.90;;;;;;;23.21;40.76;98561.94;5090992;28;20687;-61
2021/03/16 03:08:42;;;;;;;1.83;0.90;;;;;;;23.15;41.67;98559.09;5090581;28;20313;-61
2021/03/16 03:11:09;;;;;;;1.13;0.77;;;;;;;23.13;41.55;98559.25;5090518;28;20648;-61
2021/03/16 03:13:36;;;;;;;2.83;0.80;;;;;;;23.08;41.62;98558.91;5090922;28;20292;-57
2021/03/16 03:16:02;;;;;;;2.53;0.73;;;;;;;23.12;40.77;98540.78;5090871;28;20305;-57
2021/03/16 03:18:28;;;;;;;1.40;0.70;;;;;;;23.17;41.49;98557.94;5091971;28;20209;-56
2021/03/16 03:20:56;;;;;;;3.35;1.02;;;;;;;23.13;40.81;98572.59;5091784;28;20229;-58
2021/03/16 03:23:26;;;;;;;2.13;0.80;;;;;;;23.15;40.99;98575.94;5092268;28;20236;-62
2021/03/16 03:25:56;;;;;;;1.08;0.63;;;;;;;23.12;40.98;98573.59;5091840;28;20205;-61
2021/03/16 03:28:25;;;;;;;1.42;0.70;;;;;;;23.20;41.23;98576.31;5091858;28;20297;-62
2021/03/16 03:30:52;;;;;;;1.55;0.70;;;;;;;23.14;41.74;98582.28;5092222;28;20206;-62
2021/03/16 03:33:20;;;;;;;2.60;0.88;;;;;;;23.10;41.16;98586.28;5091563;28;20241;-62
2021/03/16 03:35:47;;;;;;;1.65;0.70;;;;;;;23.10;40.95;98588.94;5091525;28;20285;-62
2021/03/16 03:38:16;;;;;;;2.45;0.93;;;;;;;23.11;40.80;98595.91;5091167;28;20716;-60
2021/03/16 03:40:44;;;;;;;1.75;0.85;;;;;;;23.14;41.31;98592.94;5091301;28;20222;-62
2021/03/16 03:43:11;;;;;;;1.60;0.70;;;;;;;23.07;41.60;98599.91;5091975;28;20253;-61
2021/03/16 03:45:39;;;;;;;1.75;0.90;;;;;;;23.10;40.81;98591.59;5095820;28;20269;-57
2021/03/16 03:48:08;;;;;;;1.52;0.73;;;;;;;23.09;41.81;98595.25;5095614;28;20313;-61
2021/03/16 03:50:35;;;;;;;1.88;0.82;;;;;;;22.99;41.69;98599.84;5095034;28;20653;-61
2021/03/16 03:53:02;;;;;;;2.53;0.70;;;;;;;22.96;41.75;98610.81;5095242;28;20271;-62
2021/03/16 03:55:30;;;;;;;2.03;0.80;;;;;;;22.99;41.06;98610.50;5095060;28;20233;-62
2021/03/16 03:57:57;;;;;;;2.95;0.80;;;;;;;23.04;41.60;98606.34;5095194;28;20377;-61
2021/03/16 04:00:24;;;;;;;1.63;0.88;;;;;;;23.06;41.36;98616.88;5095480;28;20206;-57
2021/03/16 04:02:51;;;;;;;1.45;0.80;;;;;;;23.03;41.50;98609.19;5095277;28;20296;-61
2021/03/16 04:05:19;;;;;;;1.85;0.82;;;;;;;23.11;41.67;98619.91;5095206;28;20288;-57
2021/03/16 04:07:46;;;;;;;1.17;0.63;;;;;;;23.04;40.95;98621.53;5094972;28;20394;-62
2021/03/16 04:10:14;;;;;;;2.50;0.75;;;;;;;23.07;41.33;98626.59;5095434;28;20574;-62
2021/03/16 04:12:42;;;;;;;1.20;0.70;;;;;;;23.08;41.14;98618.44;5095041;28;20667;-61
2021/03/16 04:15:10;;;;;;;2.03;0.75;;;;;;;23.03;40.72;98633.19;5095158;28;20285;-61
2021/03/16 04:17:37;;;;;;;1.10;0.70;;;;;;;23.04;40.89;98634.88;5094532;28;20394;-61
2021/03/16 04:20:05;;;;;;;1.73;0.50;;;;;;;22.98;41.04;98638.16;5094677;28;20720;-61
2021/03/16 04:22:31;;;;;;;1.20;0.68;;;;;;;23.01;41.23;98635.19;5094414;28;20696;-62
2021/03/16 04:24:58;;;;;;;2.67;0.82;;;;;;;23.00;41.90;98631.69;5094640;28;20293;-61
2021/03/16 04:27:25;;;;;;;3.10;0.88;;;;;;;23.01;41.03;98632.50;5094301;28;20650;-60
2021/03/16 04:29:52;;;;;;;1.48;0.65;;;;;;;23.01;41.04;98637.84;5094786;28;20289;-60
2021/03/16 04:32:19;;;;;;;0.88;0.65;;;;;;;22.99;40.86;98646.00;5094450;28;20210;-60
2021/03/16 04:34:45;;;;;;;1.30;0.70;;;;;;;22.97;41.87;98647.16;5094687;28;20201;-60
2021/03/16 04:37:11;;;;;;;1.58;0.80;;;;;;;22.83;41.52;98649.44;5094752;28;20261;-58
2021/03/16 04:39:38;;;;;;;1.95;0.70;;;;;;;22.78;41.97;98659.69;5094548;28;20292;-61
2021/03/16 04:42:04;;;;;;;1.73;0.90;;;;;;;22.98;41.13;98656.81;5094981;28;20288;-58
2021/03/16 04:44:30;;;;;;;1.17;0.63;;;;;;;23.22;41.32;98648.16;5094264;28;20256;-61
2021/03/16 04:46:58;;;;;;;1.70;0.60;;;;;;;23.24;41.27;98649.66;5094245;28;20309;-61
2021/03/16 04:49:24;;;;;;;1.10;0.73;;;;;;;23.21;40.71;98657.97;5093293;28;20289;-62
2021/03/16 04:51:51;;;;;;;1.25;0.80;;;;;;;23.20;41.16;98660.78;5093273;28;20220;-60
2021/03/16 04:54:17;;;;;;;1.65;0.52;;;;;;;23.33;41.37;98655.03;5092556;28;20305;-56
2021/03/16 04:56:43;;;;;;;2.53;0.70;;;;;;;23.35;40.21;98659.22;5092776;28;20287;-62
2021/03/16 04:59:09;;;;;;;3.35;0.57;;;;;;;23.34;40.45;98659.38;5092522;28;20336;-61
2021/03/16 05:01:36;;;;;;;2.03;0.80;;;;;;;23.27;41.04;98659.19;5092566;28;20245;-61
2021/03/16 05:04:03;;;;;;;2.63;0.80;;;;;;;23.40;40.82;98658.75;5092983;28;20567;-61
2021/03/16 05:06:29;;;;;;;1.90;0.80;;;;;;;23.40;40.42;98656.06;5092441;28;20226;-62
2021/03/16 05:08:56;;;;;;;2.17;0.70;;;;;;;23.41;40.50;98655.06;5092451;28;20225;-62
2021/03/16 05:11:23;;;;;;;1.45;0.60;;;;;;;23.35;40.42;98651.22;5092420;28;20706;-62
2021/03/16 05:13:49;;;;;;;1.25;0.70;;;;;;;23.38;40.76;98658.91;5092871;28;20393;-61
2021/03/16 05:16:15;;;;;;;1.30;0.70;;;;;;;23.42;40.19;98670.06;5092370;28;20313;-61
2021/03/16 05:18:41;;;;;;;1.48;0.50;;;;;;;23.42;40.27;98667.41;5092767;28;20387;-62
2021/03/16 05:21:09;;;;;;;1.13;0.70;;;;;;;23.46;40.82;98674.06;5092461;28;20202;-57
2021/03/16 05:23:35;;;;;;;1.38;0.60;;;;;;;23.50;40.50;98679.94;5093200;28;20209;-56
2021/03/16 05:26:01;;;;;;;1.60;0.60;;;;;;;23.55;39.90;98678.47;5092435;28;20703;-59
2021/03/16 05:28:27;;;;;;;1.65;0.63;;;;;;;23.54;40.66;98675.94;5092454;28;20567;-60
2021/03/16 05:30:53;;;;;;;1.05;0.70;;;;;;;23.49;41.03;98683.59;5092676;28;20202;-60
2021/03/16 05:33:20;;;;;;;1.95;0.60;;;;;;;23.53;40.88;98696.47;5092418;28;20795;-61
2021/03/16 05:35:46;;;;;;;1.60;0.57;;;;;;;23.54;40.72;98692.78;5092944;28;20618;-61
2021/03/16 05:38:14;;;;;;;0.70;0.50;;;;;;;23.53;40.16;98701.81;5092303;28;20202;-58
2021/03/16 05:40:41;;;;;;;1.30;0.40;;;;;;;23.50;40.29;98706.59;5092024;28;20212;-62
2021/03/16 05:43:08;;;;;;;0.80;0.50;;;;;;;23.53;40.65;98714.28;5091740;28;20298;-61
2021/03/16 05:45:34;;;;;;;2.15;0.60;;;;;;;23.52;40.92;98716.13;5093321;28;20202;-61
2021/03/16 05:48:01;;;;;;;0.98;0.70;;;;;;;23.54;40.29;98714.13;5092567;28;20325;-61
2021/03/16 05:50:27;;;;;;;3.20;0.70;;;;;;;23.57;41.04;98727.16;5091860;28;20575;-57
2021/03/16 05:52:55;;;;;;;1.67;0.52;;;;;;;23.57;40.89;98727.16;5091722;28;20369;-61
2021/03/16 05:55:23;;;;;;;1.95;0.70;;;;;;;23.57;40.98;98729.00;5092009;28;20347;-62
2021/03/16 05:57:50;;;;;;;0.43;0.43;;;;;;;23.61;40.08;98741.84;5091632;28;20665;-62
2021/03/16 06:00:17;;;;;;;1.17;0.63;;;;;;;23.62;40.30;98735.53;5091323;28;20603;-61
2021/03/16 06:02:43;;;;;;;1.15;0.68;;;;;;;23.61;39.99;98736.50;5091785;28;20230;-56
2021/03/16 06:05:10;;;;;;;1.83;0.50;;;;;;;23.61;40.17;98735.69;5091742;28;20222;-61
2021/03/16 06:07:36;;;;;;;2.85;0.50;;;;;;;23.72;40.41;98747.91;5090632;28;20226;-61
2021/03/16 06:10:03;;;;;;;3.20;0.70;;;;;;;23.80;39.54;98746.13;5091740;28;20316;-59
2021/03/16 06:12:31;;;;;;;1.23;0.52;;;;;;;23.77;40.44;98745.59;5091187;28;20206;-61
2021/03/16 06:14:57;;;;;;;2.45;0.50;;;;;;;23.78;39.86;98745.44;5091383;28;20590;-61
2021/03/16 06:17:23;;;;;;;2.05;0.55;;;;;;;23.83;40.48;98750.31;5091102;28;20673;-59
2021/03/16 06:19:49;;;;;;;1.52;0.60;;;;;;;23.79;40.20;98746.28;5091411;28;20248;-61
2021/03/16 06:22:17;;;;;;;1.30;0.65;;;;;;;23.72;40.17;98747.91;5091119;28;20307;-59
2021/03/16 06:24:45;;;;;;;1.42;0.60;;;;;;;23.64;40.25;98746.88;5092004;28;20213;-63
2021/03/16 06:27:21;;;;;;;11.85;1.15;;;;;;;24.11;39.73;98752.72;5091927;28;20218;-63
2021/03/16 06:29:49;;;;;;;9.00;1.80;;;;;;;24.22;40.68;98760.44;5091078;28;20344;-61
2021/03/16 06:32:16;;;;;;;7.20;1.90;;;;;;;24.46;39.85;98764.16;5091341;28;20206;-60
2021/03/16 06:34:43;;;;;;;29.95;2.80;;;;;;;24.39;39.79;98762.13;5091095;28;20202;-56
2021/03/16 06:37:10;;;;;;;27.95;3.97;;;;;;;24.34;39.83;98761.78;5090854;28;20253;-61
2021/03/16 06:39:43;;;;;;;24.23;3.22;;;;;;;24.33;39.68;98762.81;5090743;28;20737;-58
2021/03/16 06:42:20;;;;;;;19.10;2.92;;;;;;;24.34;40.62;98761.78;5090700;28;20672;-58
2021/03/16 06:44:46;;;;;;;11.73;2.40;;;;;;;24.34;40.33;98771.66;5090910;28;20296;-61
2021/03/16 06:47:15;;;;;;;16.30;2.72;;;;;;;24.18;40.63;98770.63;5090874;28;20791;-60
2021/03/16 06:49:41;;;;;;;24.92;2.72;;;;;;;24.01;40.69;98777.78;5091072;28;20300;-59
2021/03/16 06:52:11;;;;;;;16.10;2.40;;;;;;;23.98;41.25;98786.09;5091678;28;20726;-62
2021/03/16 06:54:37;;;;;;;11.30;2.53;;;;;;;24.11;40.88;98790.97;5091400;28;20205;-63
2021/03/16 06:57:06;;;;;;;11.43;2.78;;;;;;;24.20;39.89;98783.81;5091275;28;20245;-60
2021/03/16 06:59:33;;;;;;;13.75;2.42;;;;;;;24.43;39.95;98793.88;5091579;28;20221;-61
2021/03/16 07:01:59;;;;;;;13.73;2.30;;;;;;;24.48;40.51;98791.53;5091432;28;20230;-60
2021/03/16 07:04:29;;;;;;;7.22;1.73;;;;;;;24.50;40.33;98801.09;5091448;28;20259;-60
2021/03/16 07:06:55;;;;;;;10.18;2.17;;;;;;;24.67;39.70;98806.50;5090038;28;20440;-63
2021/03/16 07:09:21;;;;;;;11.13;1.92;;;;;;;24.65;38.76;98808.50;5090830;28;20226;-62
2021/03/16 07:11:51;;;;;;;23.83;1.95;;;;;;;24.38;39.79;98813.94;5091136;28;20373;-62
2021/03/16 07:14:19;;;;;;;13.40;1.90;;;;;;;24.53;39.83;98823.97;5090953;28;20241;-63
2021/03/16 07:16:46;;;;;;;17.00;2.50;;;;;;;24.43;39.30;98825.94;5090787;28;20684;-61
2021/03/16 07:19:15;;;;;;;8.30;1.50;;;;;;;24.53;38.68;98827.50;5095059;28;20245;-62
2021/03/16 07:21:51;;;;;;;12.05;2.00;;;;;;;24.59;40.03;98836.72;5094812;28;20653;-61
2021/03/16 07:24:18;;;;;;;10.32;1.70;;;;;;;24.64;39.81;98837.03;5095068;28;20324;-61
2021/03/16 07:26:46;;;;;;;11.55;1.80;;;;;;;24.77;39.55;98833.06;5095524;28;20229;-61
2021/03/16 07:29:12;;;;;;;5.70;1.65;;;;;;;24.74;39.28;98840.41;5094713;28;20312;-61
2021/03/16 07:31:43;;;;;;;7.43;1.80;;;;;;;24.70;38.98;98833.72;5094947;28;20293;-60
2021/03/16 07:34:10;;;;;;;6.95;1.42;;;;;;;24.73;38.92;98838.75;5094618;28;20281;-62
2021/03/16 07:36:38;;;;;;;6.57;1.50;;;;;;;24.69;40.15;98842.72;5095694;28;20304;-61
2021/03/16 07:39:07;;;;;;;6.97;1.42;;;;;;;24.77;39.39;98847.25;5094949;28;20259;-61
2021/03/16 07:41:37;;;;;;;7.57;1.58;;;;;;;24.91;38.68;98856.47;5094968;28;20216;-61
2021/03/16 07:44:05;;;;;;;5.57;1.40;;;;;;;24.94;38.89;98856.97;5095323;28;20332;-58
2021/03/16 07:46:45;;;;;;;4.75;1.42;;;;;;;24.94;38.38;98864.97;5094366;28;20259;-61
2021/03/16 07:49:14;;;;;;;6.20;1.42;;;;;;;24.88;39.14;98868.34;5094726;28;20202;-61
2021/03/16 07:51:43;;;;;;;4.70;0.95;;;;;;;24.71;38.96;98859.47;5094818;28;20618;-56
2021/03/16 07:54:12;;;;;;;9.23;1.38;;;;;;;24.88;38.42;98872.84;5094638;28;20612;-61
2021/03/16 07:56:40;;;;;;;4.65;1.23;;;;;;;24.70;39.12;98876.50;5094269;28;20225;-59
2021/03/16 07:59:08;;;;;;;7.40;1.50;;;;;;;24.76;38.64;98875.00;5094264;28;20534;-58
2021/03/16 08:01:46;;;;;;;2.92;1.08;;;;;;;24.85;38.54;98867.84;5094281;28;20208;-61
2021/03/16 08:04:13;;;;;;;14.75;1.40;;;;;;;24.88;38.73;98867.50;5094061;28;20610;-62
2021/03/16 08:06:41;;;;;;;7.18;1.55;;;;;;;24.66;39.76;98880.47;5093907;28;20684;-60
2021/03/16 08:09:21;;;;;;;8.00;1.52;;;;;;;24.86;38.78;98864.16;5093870;28;20217;-62
2021/03/16 08:11:47;;;;;;;8.50;1.30;;;;;;;25.00;39.32;98868.03;5093881;28;20193;-60
2021/03/16 08:14:23;;;;;;;9.00;1.20;;;;;;;25.08;38.27;98879.56;5093753;28;20255;-62
2021/03/16 08:16:50;;;;;;;6.95;1.23;;;;;;;25.16;37.84;98885.91;5093948;28;20222;-61
2021/03/16 08:19:18;;;;;;;6.30;1.38;;;;;;;24.85;39.54;98883.88;5094159;28;20237;-60
2021/03/16 08:21:46;;;;;;;7.32;1.40;;;;;;;24.58;39.62;98885.84;5093921;28;20285;-62
2021/03/16 08:24:15;;;;;;;4.32;1.15;;;;;;;24.57;40.12;98881.47;5093995;28;20668;-60
2021/03/16 08:26:47;;;;;;;7.30;1.05;;;;;;;24.50;39.99;98883.94;5093492;28;20222;-58
2021/03/16 08:29:14;;;;;;;7.85;1.58;;;;;;;24.61;38.89;98879.31;5092805;28;20234;-60
2021/03/16 08:31:41;;;;;;;4.35;1.20;;;;;;;24.66;39.06;98883.16;5093338;28;20209;-59
2021/03/16 08:34:08;;;;;;;7.63;1.35;;;;;;;24.77;38.69;98886.53;5093489;28;20266;-61
2021/03/16 08:36:45;;;;;;;6.20;1.30;;;;;;;24.67;39.47;98886.69;5093359;28;20241;-57
2021/03/16 08:39:19;;;;;;;7.95;0.90;;;;;;;24.50;39.73;98885.78;5093645;28;20194;-60
2021/03/16 08:41:57;;;;;;;6.63;1.20;;;;;;;24.47;39.27;98886.94;5093169;28;20296;-58
2021/03/16 08:44:24;;;;;;;11.75;1.13;;;;;;;24.30;39.49;98890.56;5093355;28;20579;-59
2021/03/16 08:46:51;;;;;;;13.85;1.42;;;;;;;24.49;40.40;98884.09;5093566;28;20222;-61
2021/03/16 08:49:19;;;;;;;8.30;1.10;;;;;;;24.44;39.93;98891.78;5093389;28;20298;-61
2021/03/16 08:51:46;;;;;;;4.13;0.93;;;;;;;24.49;40.17;98894.78;5093505;28;20545;-61
2021/03/16 08:54:21;;;;;;;8.05;1.30;;;;;;;24.62;40.33;98900.53;5093451;28;20209;-62
2021/03/16 08:56:49;;;;;;;8.00;1.27;;;;;;;24.89;38.46;98906.63;5092966;28;20297;-62
2021/03/16 08:59:19;;;;;;;9.60;1.42;;;;;;;24.83;38.49;98902.78;5093417;28;20565;-62
2021/03/16 09:01:47;;;;;;;5.53;1.27;;;;;;;24.81;38.46;98907.41;5093555;28;20215;-62
2021/03/16 09:04:13;;;;;;;6.53;1.20;;;;;;;24.77;39.58;98910.63;5094041;28;20331;-62
2021/03/16 09:06:40;;;;;;;5.03;0.90;;;;;;;24.86;38.90;98914.97;5093464;28;20222;-62
2021/03/16 09:09:07;;;;;;;4.30;1.00;;;;;;;24.98;39.20;98915.47;5093846;28;20226;-62
2021/03/16 09:11:37;;;;;;;6.32;1.00;;;;;;;24.95;38.77;98924.69;5094213;28;20203;-63
2021/03/16 09:14:11;;;;;;;5.53;0.90;;;;;;;24.80;38.46;98923.63;5093501;28;20206;-63
2021/03/16 09:16:42;;;;;;;4.10;1.00;;;;;;;24.74;38.53;98925.13;5092953;28;20217;-62
2021/03/16 09:19:10;;;;;;;9.27;0.90;;;;;;;24.85;38.34;98930.19;5092889;28;20359;-60
2021/03/16 09:21:47;;;;;;;5.57;1.02;;;;;;;24.85;38.28;98932.03;5092416;28;20364;-62
2021/03/16 09:24:14;;;;;;;3.80;0.90;;;;;;;24.85;39.46;98940.88;5092469;28;20200;-63
2021/03/16 09:26:41;;;;;;;2.50;0.90;;;;;;;24.73;38.58;98945.69;5092548;28;20226;-63
2021/03/16 09:29:07;;;;;;;4.53;0.98;;;;;;;24.69;38.74;98938.97;5092548;28;20303;-62
2021/03/16 09:31:34;;;;;;;3.58;1.00;;;;;;;24.85;39.13;98934.69;5092127;28;20202;-62
2021/03/16 09:34:01;;;;;;;1.67;0.70;;;;;;;24.95;39.03;98938.06;5092485;28;20202;-63
2021/03/16 09:36:29;;;;;;;2.72;1.05;;;;;;;24.79;38.59;98948.72;5092136;28;20233;-62
2021/03/16 09:38:57;;;;;;;2.38;1.00;;;;;;;24.81;38.83;98957.41;5092119;28;20248;-63
2021/03/16 09:41:24;;;;;;;3.38;0.90;;;;;;;24.74;39.55;98955.38;5091940;28;20286;-62
2021/03/16 09:43:51;;;;;;;3.53;1.05;;;;;;;24.92;39.32;98959.78;5091796;28;20267;-63
2021/03/16 09:46:17;;;;;;;6.03;0.90;;;;;;;25.00;38.83;98954.44;5091703;28;20226;-62
2021/03/16 09:48:47;;;;;;;5.93;0.68;;;;;;;24.80;39.43;98966.41;5091845;28;20226;-62
2021/03/16 09:51:16;;;;;;;3.85;1.08;;;;;;;24.41;39.82;98967.75;5091939;28;20202;-63
2021/03/16 09:53:47;;;;;;;6.20;0.80;;;;;;;24.22;40.76;98968.00;5091962;28;20223;-63
2021/03/16 09:56:13;;;;;;;2.60;0.70;;;;;;;24.24;40.63;98968.69;5091806;28;20320;-61
2021/03/16 09:58:49;;;;;;;5.25;1.05;;;;;;;24.26;40.88;98972.84;5091901;28;20210;-61
2021/03/16 10:01:20;;;;;;;3.08;1.00;;;;;;;24.24;40.30;98966.84;5091748;28;20243;-61
2021/03/16 10:03:55;;;;;;;6.55;1.02;;;;;;;24.24;40.18;98961.50;5092128;28;20202;-62
2021/03/16 10:06:33;;;;;;;8.88;1.08;;;;;;;24.31;40.04;98970.53;5091388;28;20619;-61
2021/03/16 10:08:59;;;;;;;4.85;0.68;;;;;;;24.33;39.76;98963.22;5092023;28;20206;-62
2021/03/16 10:11:32;;;;;;;7.25;1.15;;;;;;;24.33;39.56;98957.88;5091818;28;20513;-61
2021/03/16 10:13:59;;;;;;;9.63;0.90;;;;;;;24.24;40.30;98958.81;5091401;28;20186;-61
2021/03/16 10:16:29;;;;;;;3.90;0.85;;;;;;;24.04;40.74;98954.72;5091624;28;20295;-61
2021/03/16 10:18:56;;;;;;;3.83;1.20;;;;;;;24.08;40.39;98950.72;5091146;28;20205;-62
2021/03/16 10:21:30;;;;;;;1.95;0.73;;;;;;;24.08;40.88;98948.03;5091218;28;20644;-57
2021/03/16 10:23:58;;;;;;;4.63;0.85;;;;;;;24.14;40.24;98956.25;5091582;28;20198;-62
2021/03/16 10:26:24;;;;;;;2.92;0.75;;;;;;;24.12;40.50;98949.41;5090894;28;20753;-61
2021/03/16 10:28:51;;;;;;;2.50;0.73;;;;;;;24.13;39.90;98945.72;5091332;28;20222;-62
2021/03/16 10:31:19;;;;;;;3.05;0.82;;;;;;;24.07;40.85;98946.38;5090879;28;20645;-58
2021/03/16 10:33:48;;;;;;;3.72;0.80;;;;;;;24.05;40.12;98945.69;5090865;28;20255;-59
2021/03/16 10:36:15;;;;;;;2.55;0.80;;;;;;;23.98;40.35;98940.13;5091122;28;20224;-61
2021/03/16 10:38:43;;;;;;;5.10;1.00;;;;;;;24.00;40.47;98944.34;5090706;28;20208;-60
2021/03/16 10:41:09;;;;;;;11.77;1.20;;;;;;;23.92;41.45;98944.28;5091332;28;20514;-61
2021/03/16 10:43:35;;;;;;;1.58;0.80;;;;;;;24.18;40.11;98938.94;5091346;28;20229;-62
2021/03/16 10:46:01;;;;;;;7.75;0.80;;;;;;;24.22;40.72;98942.13;5091151;28;20269;-59
2021/03/16 10:48:27;;;;;;;5.38;1.00;;;;;;;24.15;41.65;98941.09;5091337;28;20290;-59
2021/03/16 10:50:54;;;;;;;4.05;1.02;;;;;;;24.02;41.62;98938.84;5091197;28;20244;-64
2021/03/16 10:53:20;;;;;;;5.22;1.10;;;;;;;24.07;40.55;98941.03;5090756;28;20229;-57
2021/03/16 10:55:47;;;;;;;12.90;1.27;;;;;;;24.18;40.29;98936.25;5091081;28;20218;-54
2021/03/16 10:58:13;;;;;;;6.95;0.90;;;;;;;24.34;40.94;98942.66;5090633;28;20218;-60
2021/03/16 11:00:40;;;;;;;4.75;0.80;;;;;;;24.26;40.84;98940.78;5090628;28;20293;-56
2021/03/16 11:03:06;;;;;;;3.45;1.23;;;;;;;24.33;40.18;98935.63;5090642;28;20202;-58
2021/03/16 11:05:32;;;;;;;3.97;0.90;;;;;;;24.13;42.00;98948.41;5090779;28;20669;-58
2021/03/16 11:07:58;;;;;;;5.30;0.82;;;;;;;24.28;40.78;98938.81;5091035;28;20325;-61
2021/03/16 11:10:25;;;;;;;7.45;1.02;;;;;;;24.30;40.92;98947.50;5090960;28;20244;-60
2021/03/16 11:12:52;;;;;;;4.15;1.05;;;;;;;24.35;41.33;98941.69;5090869;28;20634;-57
2021/03/16 11:15:18;;;;;;;2.90;0.85;;;;;;;24.29;40.63;98937.78;5091093;28;20234;-60
2021/03/16 11:17:44;;;;;;;3.13;0.90;;;;;;;24.31;39.93;98937.63;5090565;28;20723;-61
2021/03/16 11:20:12;;;;;;;4.38;0.90;;;;;;;24.33;40.69;98944.50;5091276;28;20337;-61
2021/03/16 11:22:38;;;;;;;4.18;0.80;;;;;;;24.12;41.01;98941.41;5090973;28;20237;-64
2021/03/16 11:25:06;;;;;;;2.80;0.70;;;;;;;24.24;40.67;98948.13;5090455;28;20198;-62
2021/03/16 11:27:33;;;;;;;2.90;0.77;;;;;;;24.41;40.01;98948.22;5090874;28;20253;-60
2021/03/16 11:30:00;;;;;;;6.85;0.98;;;;;;;24.48;41.02;98947.41;5090880;28;20218;-57
2021/03/16 11:32:26;;;;;;;5.05;0.85;;;;;;;24.41;40.29;98942.88;5090612;28;20513;-59
2021/03/16 11:34:52;;;;;;;1.83;0.88;;;;;;;24.44;39.85;98947.91;5090906;28;20338;-59